sensor_id;sensor_type;location;lat;lon;timestamp;P1;durP1;ratioP1;P2;durP2;ratioP2
12429;SDS011;6279;42.192;24.326;2023-11-22T00:01:03;12.73;;;7.83;;
12429;SDS011;6279;42.192;24.326;2023-11-22T00:03:29;13.83;;;8.83;;
12429;SDS011;6279;42.192;24.326;2023-11-22T00:05:55;14.30;;;8.57;;
12429;SDS011;6279;42.192;24.326;2023-11-22T00:08:20;12.33;;;7.07;;
12429;SDS011;6279;42.192;24.326;2023-11-22T00:10:45;11.87;;;7.77;;
12429;SDS011;6279;42.192;24.326;2023-11-22T00:13:11;11.60;;;8.60;;
12429;SDS011;6279;42.192;24.326;2023-11-22T00:15:36;12.67;;;7.40;;
12429;SDS011;6279;42.192;24.326;2023-11-22T00:18:02;11.10;;;7.53;;
12429;SDS011;6279;42.192;24.326;2023-11-22T00:20:28;11.60;;;7.63;;
12429;SDS011;6279;42.192;24.326;2023-11-22T00:22:55;12.07;;;7.33;;
12429;SDS011;6279;42.192;24.326;2023-11-22T00:25:20;12.17;;;7.03;;
12429;SDS011;6279;42.192;24.326;2023-11-22T00:27:45;12.53;;;7.50;;
12429;SDS011;6279;42.192;24.326;2023-11-22T00:30:12;12.10;;;8.50;;
12429;SDS011;6279;42.192;24.326;2023-11-22T00:32:37;11.37;;;8.27;;
12429;SDS011;6279;42.192;24.326;2023-11-22T00:35:05;11.77;;;7.97;;
12429;SDS011;6279;42.192;24.326;2023-11-22T00:37:31;11.23;;;7.90;;
12429;SDS011;6279;42.192;24.326;2023-11-22T00:39:56;13.57;;;9.00;;
12429;SDS011;6279;42.192;24.326;2023-11-22T00:42:22;13.43;;;9.33;;
12429;SDS011;6279;42.192;24.326;2023-11-22T00:44:47;14.00;;;9.70;;
12429;SDS011;6279;42.192;24.326;2023-11-22T00:47:13;14.20;;;9.73;;
12429;SDS011;6279;42.192;24.326;2023-11-22T00:49:38;13.17;;;9.70;;
12429;SDS011;6279;42.192;24.326;2023-11-22T00:52:04;16.10;;;9.30;;
12429;SDS011;6279;42.192;24.326;2023-11-22T00:54:29;12.60;;;7.63;;
12429;SDS011;6279;42.192;24.326;2023-11-22T00:56:54;10.80;;;7.10;;
12429;SDS011;6279;42.192;24.326;2023-11-22T00:59:20;10.73;;;7.07;;
12429;SDS011;6279;42.192;24.326;2023-11-22T01:01:45;10.17;;;7.53;;
12429;SDS011;6279;42.192;24.326;2023-11-22T01:04:10;13.60;;;7.83;;
12429;SDS011;6279;42.192;24.326;2023-11-22T01:06:36;10.23;;;7.87;;
12429;SDS011;6279;42.192;24.326;2023-11-22T01:09:05;11.73;;;7.03;;
12429;SDS011;6279;42.192;24.326;2023-11-22T01:11:33;12.43;;;8.03;;
12429;SDS011;6279;42.192;24.326;2023-11-22T01:13:59;12.77;;;7.70;;
12429;SDS011;6279;42.192;24.326;2023-11-22T01:16:24;11.00;;;8.20;;
12429;SDS011;6279;42.192;24.326;2023-11-22T01:18:50;13.13;;;7.70;;
12429;SDS011;6279;42.192;24.326;2023-11-22T01:21:17;11.33;;;7.60;;
12429;SDS011;6279;42.192;24.326;2023-11-22T01:23:43;12.60;;;8.10;;
12429;SDS011;6279;42.192;24.326;2023-11-22T01:26:10;12.47;;;7.47;;
12429;SDS011;6279;42.192;24.326;2023-11-22T01:28:35;9.60;;;7.00;;
12429;SDS011;6279;42.192;24.326;2023-11-22T01:31:01;14.57;;;7.23;;
12429;SDS011;6279;42.192;24.326;2023-11-22T01:33:29;11.00;;;7.63;;
12429;SDS011;6279;42.192;24.326;2023-11-22T01:35:54;10.73;;;7.50;;
12429;SDS011;6279;42.192;24.326;2023-11-22T01:38:20;10.90;;;7.20;;
12429;SDS011;6279;42.192;24.326;2023-11-22T01:40:46;10.70;;;7.50;;
12429;SDS011;6279;42.192;24.326;2023-11-22T01:43:18;10.33;;;7.13;;
12429;SDS011;6279;42.192;24.326;2023-11-22T01:45:45;9.83;;;7.40;;
12429;SDS011;6279;42.192;24.326;2023-11-22T01:48:11;11.80;;;7.30;;
12429;SDS011;6279;42.192;24.326;2023-11-22T01:50:37;10.53;;;6.87;;
12429;SDS011;6279;42.192;24.326;2023-11-22T01:53:06;10.33;;;6.90;;
12429;SDS011;6279;42.192;24.326;2023-11-22T01:55:36;13.73;;;9.83;;
12429;SDS011;6279;42.192;24.326;2023-11-22T01:58:04;15.50;;;9.67;;
12429;SDS011;6279;42.192;24.326;2023-11-22T02:00:31;15.00;;;9.30;;
12429;SDS011;6279;42.192;24.326;2023-11-22T02:03:01;13.73;;;9.03;;
12429;SDS011;6279;42.192;24.326;2023-11-22T02:05:30;13.10;;;10.13;;
12429;SDS011;6279;42.192;24.326;2023-11-22T02:07:55;12.13;;;8.33;;
12429;SDS011;6279;42.192;24.326;2023-11-22T02:10:22;11.67;;;8.27;;
12429;SDS011;6279;42.192;24.326;2023-11-22T02:12:49;10.20;;;7.90;;
12429;SDS011;6279;42.192;24.326;2023-11-22T02:15:14;12.30;;;8.37;;
12429;SDS011;6279;42.192;24.326;2023-11-22T02:17:39;13.10;;;8.10;;
12429;SDS011;6279;42.192;24.326;2023-11-22T02:20:05;12.50;;;7.57;;
12429;SDS011;6279;42.192;24.326;2023-11-22T02:22:31;9.77;;;7.43;;
12429;SDS011;6279;42.192;24.326;2023-11-22T02:24:57;9.17;;;6.70;;
12429;SDS011;6279;42.192;24.326;2023-11-22T02:27:22;10.20;;;7.93;;
12429;SDS011;6279;42.192;24.326;2023-11-22T02:29:48;9.63;;;7.20;;
12429;SDS011;6279;42.192;24.326;2023-11-22T02:32:13;9.83;;;7.50;;
12429;SDS011;6279;42.192;24.326;2023-11-22T02:34:39;10.90;;;7.67;;
12429;SDS011;6279;42.192;24.326;2023-11-22T02:37:04;10.20;;;6.70;;
12429;SDS011;6279;42.192;24.326;2023-11-22T02:39:37;10.03;;;7.37;;
12429;SDS011;6279;42.192;24.326;2023-11-22T02:42:10;9.03;;;7.10;;
12429;SDS011;6279;42.192;24.326;2023-11-22T02:44:35;9.43;;;6.30;;
12429;SDS011;6279;42.192;24.326;2023-11-22T02:47:01;9.53;;;6.70;;
12429;SDS011;6279;42.192;24.326;2023-11-22T02:49:26;10.43;;;7.03;;
12429;SDS011;6279;42.192;24.326;2023-11-22T02:51:51;15.77;;;6.90;;
12429;SDS011;6279;42.192;24.326;2023-11-22T02:54:17;11.73;;;7.87;;
12429;SDS011;6279;42.192;24.326;2023-11-22T02:56:42;9.93;;;6.63;;
12429;SDS011;6279;42.192;24.326;2023-11-22T02:59:07;12.23;;;7.30;;
12429;SDS011;6279;42.192;24.326;2023-11-22T03:01:38;11.00;;;7.20;;
12429;SDS011;6279;42.192;24.326;2023-11-22T03:04:04;11.60;;;7.37;;
12429;SDS011;6279;42.192;24.326;2023-11-22T03:06:29;12.37;;;8.23;;
12429;SDS011;6279;42.192;24.326;2023-11-22T03:08:55;12.30;;;8.20;;
12429;SDS011;6279;42.192;24.326;2023-11-22T03:11:20;14.93;;;8.17;;
12429;SDS011;6279;42.192;24.326;2023-11-22T03:13:47;12.10;;;7.93;;
12429;SDS011;6279;42.192;24.326;2023-11-22T03:16:14;12.40;;;8.10;;
12429;SDS011;6279;42.192;24.326;2023-11-22T03:18:39;13.40;;;8.93;;
12429;SDS011;6279;42.192;24.326;2023-11-22T03:21:05;11.57;;;7.50;;
12429;SDS011;6279;42.192;24.326;2023-11-22T03:23:30;11.97;;;8.17;;
12429;SDS011;6279;42.192;24.326;2023-11-22T03:25:56;12.50;;;8.57;;
12429;SDS011;6279;42.192;24.326;2023-11-22T03:28:21;11.87;;;8.33;;
12429;SDS011;6279;42.192;24.326;2023-11-22T03:30:47;11.27;;;8.07;;
12429;SDS011;6279;42.192;24.326;2023-11-22T03:33:12;14.30;;;9.60;;
12429;SDS011;6279;42.192;24.326;2023-11-22T03:35:40;13.03;;;9.47;;
12429;SDS011;6279;42.192;24.326;2023-11-22T03:38:06;12.93;;;8.97;;
12429;SDS011;6279;42.192;24.326;2023-11-22T03:40:31;14.47;;;9.67;;
12429;SDS011;6279;42.192;24.326;2023-11-22T03:42:57;15.97;;;8.60;;
12429;SDS011;6279;42.192;24.326;2023-11-22T03:45:22;13.97;;;9.93;;
12429;SDS011;6279;42.192;24.326;2023-11-22T03:47:47;16.13;;;9.87;;
12429;SDS011;6279;42.192;24.326;2023-11-22T03:50:13;11.87;;;9.23;;
12429;SDS011;6279;42.192;24.326;2023-11-22T03:52:39;14.53;;;9.83;;
12429;SDS011;6279;42.192;24.326;2023-11-22T03:55:05;14.23;;;9.83;;
12429;SDS011;6279;42.192;24.326;2023-11-22T03:57:30;17.03;;;11.90;;
12429;SDS011;6279;42.192;24.326;2023-11-22T03:59:56;19.27;;;13.53;;
12429;SDS011;6279;42.192;24.326;2023-11-22T04:02:21;17.27;;;12.07;;
12429;SDS011;6279;42.192;24.326;2023-11-22T04:04:47;13.53;;;10.57;;
12429;SDS011;6279;42.192;24.326;2023-11-22T04:07:12;19.27;;;11.87;;
12429;SDS011;6279;42.192;24.326;2023-11-22T04:09:37;18.03;;;11.60;;
12429;SDS011;6279;42.192;24.326;2023-11-22T04:12:03;15.20;;;10.77;;
12429;SDS011;6279;42.192;24.326;2023-11-22T04:14:29;19.63;;;12.87;;
12429;SDS011;6279;42.192;24.326;2023-11-22T04:16:54;24.87;;;16.10;;
12429;SDS011;6279;42.192;24.326;2023-11-22T04:19:20;20.57;;;14.20;;
12429;SDS011;6279;42.192;24.326;2023-11-22T04:21:45;15.10;;;11.43;;
12429;SDS011;6279;42.192;24.326;2023-11-22T04:24:11;22.40;;;13.57;;
12429;SDS011;6279;42.192;24.326;2023-11-22T04:26:37;19.07;;;12.93;;
12429;SDS011;6279;42.192;24.326;2023-11-22T04:29:02;18.70;;;12.60;;
12429;SDS011;6279;42.192;24.326;2023-11-22T04:31:29;32.03;;;19.83;;
12429;SDS011;6279;42.192;24.326;2023-11-22T04:33:54;27.07;;;18.80;;
12429;SDS011;6279;42.192;24.326;2023-11-22T04:36:22;31.50;;;19.27;;
12429;SDS011;6279;42.192;24.326;2023-11-22T04:38:48;44.13;;;26.03;;
12429;SDS011;6279;42.192;24.326;2023-11-22T04:41:14;43.87;;;25.97;;
12429;SDS011;6279;42.192;24.326;2023-11-22T04:43:40;37.47;;;20.47;;
12429;SDS011;6279;42.192;24.326;2023-11-22T04:46:06;33.57;;;19.67;;
12429;SDS011;6279;42.192;24.326;2023-11-22T04:48:33;31.80;;;18.23;;
12429;SDS011;6279;42.192;24.326;2023-11-22T04:50:59;21.73;;;14.40;;
12429;SDS011;6279;42.192;24.326;2023-11-22T04:53:24;17.80;;;12.80;;
12429;SDS011;6279;42.192;24.326;2023-11-22T04:55:50;20.67;;;13.83;;
12429;SDS011;6279;42.192;24.326;2023-11-22T04:58:15;22.57;;;13.70;;
12429;SDS011;6279;42.192;24.326;2023-11-22T05:00:41;26.90;;;15.73;;
12429;SDS011;6279;42.192;24.326;2023-11-22T05:03:06;26.87;;;14.13;;
12429;SDS011;6279;42.192;24.326;2023-11-22T05:05:31;20.27;;;12.50;;
12429;SDS011;6279;42.192;24.326;2023-11-22T05:07:57;19.90;;;11.67;;
12429;SDS011;6279;42.192;24.326;2023-11-22T05:10:22;47.60;;;23.90;;
12429;SDS011;6279;42.192;24.326;2023-11-22T05:12:47;26.80;;;14.90;;
12429;SDS011;6279;42.192;24.326;2023-11-22T05:15:13;17.10;;;10.00;;
12429;SDS011;6279;42.192;24.326;2023-11-22T05:17:39;15.83;;;9.60;;
12429;SDS011;6279;42.192;24.326;2023-11-22T05:20:05;12.07;;;8.57;;
12429;SDS011;6279;42.192;24.326;2023-11-22T05:22:34;15.60;;;10.70;;
12429;SDS011;6279;42.192;24.326;2023-11-22T05:25:00;16.07;;;9.00;;
12429;SDS011;6279;42.192;24.326;2023-11-22T05:27:25;20.33;;;13.23;;
12429;SDS011;6279;42.192;24.326;2023-11-22T05:29:51;47.57;;;22.60;;
12429;SDS011;6279;42.192;24.326;2023-11-22T05:32:16;46.30;;;21.83;;
12429;SDS011;6279;42.192;24.326;2023-11-22T05:34:42;44.47;;;21.13;;
12429;SDS011;6279;42.192;24.326;2023-11-22T05:37:08;29.23;;;16.70;;
12429;SDS011;6279;42.192;24.326;2023-11-22T05:39:34;29.03;;;15.30;;
12429;SDS011;6279;42.192;24.326;2023-11-22T05:41:59;25.53;;;14.13;;
12429;SDS011;6279;42.192;24.326;2023-11-22T05:44:25;16.33;;;8.60;;
12429;SDS011;6279;42.192;24.326;2023-11-22T05:46:51;19.73;;;9.50;;
12429;SDS011;6279;42.192;24.326;2023-11-22T05:49:17;21.80;;;12.63;;
12429;SDS011;6279;42.192;24.326;2023-11-22T05:51:42;25.50;;;14.03;;
12429;SDS011;6279;42.192;24.326;2023-11-22T05:54:07;23.63;;;12.10;;
12429;SDS011;6279;42.192;24.326;2023-11-22T05:56:34;19.83;;;11.27;;
12429;SDS011;6279;42.192;24.326;2023-11-22T05:58:59;17.30;;;10.67;;
12429;SDS011;6279;42.192;24.326;2023-11-22T06:01:25;16.17;;;10.60;;
12429;SDS011;6279;42.192;24.326;2023-11-22T06:03:51;14.67;;;10.07;;
12429;SDS011;6279;42.192;24.326;2023-11-22T06:06:17;19.50;;;11.30;;
12429;SDS011;6279;42.192;24.326;2023-11-22T06:08:43;18.30;;;11.53;;
12429;SDS011;6279;42.192;24.326;2023-11-22T06:11:08;20.87;;;13.03;;
12429;SDS011;6279;42.192;24.326;2023-11-22T06:13:33;20.20;;;12.10;;
12429;SDS011;6279;42.192;24.326;2023-11-22T06:15:59;19.87;;;12.40;;
12429;SDS011;6279;42.192;24.326;2023-11-22T06:18:24;19.00;;;11.93;;
12429;SDS011;6279;42.192;24.326;2023-11-22T06:20:55;19.20;;;11.63;;
12429;SDS011;6279;42.192;24.326;2023-11-22T06:23:21;17.97;;;11.30;;
12429;SDS011;6279;42.192;24.326;2023-11-22T06:25:46;19.03;;;11.40;;
12429;SDS011;6279;42.192;24.326;2023-11-22T06:28:12;17.17;;;9.80;;
12429;SDS011;6279;42.192;24.326;2023-11-22T06:30:37;15.03;;;9.43;;
12429;SDS011;6279;42.192;24.326;2023-11-22T06:33:03;24.27;;;10.33;;
12429;SDS011;6279;42.192;24.326;2023-11-22T06:35:28;17.20;;;9.57;;
12429;SDS011;6279;42.192;24.326;2023-11-22T06:37:54;15.50;;;9.60;;
12429;SDS011;6279;42.192;24.326;2023-11-22T06:40:19;17.63;;;10.97;;
12429;SDS011;6279;42.192;24.326;2023-11-22T06:42:48;23.97;;;10.17;;
12429;SDS011;6279;42.192;24.326;2023-11-22T06:45:13;19.17;;;10.73;;
12429;SDS011;6279;42.192;24.326;2023-11-22T06:47:39;21.33;;;11.40;;
12429;SDS011;6279;42.192;24.326;2023-11-22T06:50:04;19.83;;;12.40;;
12429;SDS011;6279;42.192;24.326;2023-11-22T06:52:40;28.23;;;13.23;;
12429;SDS011;6279;42.192;24.326;2023-11-22T06:55:07;28.77;;;16.93;;
12429;SDS011;6279;42.192;24.326;2023-11-22T06:57:33;28.73;;;18.53;;
12429;SDS011;6279;42.192;24.326;2023-11-22T07:00:02;34.07;;;21.20;;
12429;SDS011;6279;42.192;24.326;2023-11-22T07:02:35;28.37;;;18.83;;
12429;SDS011;6279;42.192;24.326;2023-11-22T07:05:02;26.90;;;18.20;;
12429;SDS011;6279;42.192;24.326;2023-11-22T07:07:28;29.23;;;17.23;;
12429;SDS011;6279;42.192;24.326;2023-11-22T07:09:55;29.53;;;18.33;;
12429;SDS011;6279;42.192;24.326;2023-11-22T07:12:23;32.83;;;18.67;;
12429;SDS011;6279;42.192;24.326;2023-11-22T07:14:49;32.63;;;19.83;;
12429;SDS011;6279;42.192;24.326;2023-11-22T07:17:15;38.40;;;22.20;;
12429;SDS011;6279;42.192;24.326;2023-11-22T07:19:42;42.17;;;26.27;;
12429;SDS011;6279;42.192;24.326;2023-11-22T07:22:12;29.90;;;18.57;;
12429;SDS011;6279;42.192;24.326;2023-11-22T07:24:43;25.13;;;16.63;;
12429;SDS011;6279;42.192;24.326;2023-11-22T07:27:13;25.50;;;16.20;;
12429;SDS011;6279;42.192;24.326;2023-11-22T07:29:41;31.70;;;15.33;;
12429;SDS011;6279;42.192;24.326;2023-11-22T07:32:07;28.03;;;17.00;;
12429;SDS011;6279;42.192;24.326;2023-11-22T07:34:37;37.93;;;17.20;;
12429;SDS011;6279;42.192;24.326;2023-11-22T07:37:04;30.63;;;18.60;;
12429;SDS011;6279;42.192;24.326;2023-11-22T07:39:32;22.10;;;13.73;;
12429;SDS011;6279;42.192;24.326;2023-11-22T07:41:58;21.13;;;11.87;;
12429;SDS011;6279;42.192;24.326;2023-11-22T07:44:23;18.20;;;11.07;;
12429;SDS011;6279;42.192;24.326;2023-11-22T07:46:49;14.10;;;9.30;;
12429;SDS011;6279;42.192;24.326;2023-11-22T07:49:16;13.33;;;9.93;;
12429;SDS011;6279;42.192;24.326;2023-11-22T07:51:43;17.47;;;11.77;;
12429;SDS011;6279;42.192;24.326;2023-11-22T07:54:10;16.13;;;11.37;;
12429;SDS011;6279;42.192;24.326;2023-11-22T07:56:40;20.93;;;13.37;;
12429;SDS011;6279;42.192;24.326;2023-11-22T07:59:08;20.53;;;11.53;;
12429;SDS011;6279;42.192;24.326;2023-11-22T08:01:33;20.63;;;11.27;;
12429;SDS011;6279;42.192;24.326;2023-11-22T08:03:59;15.97;;;11.67;;
12429;SDS011;6279;42.192;24.326;2023-11-22T08:06:24;18.20;;;11.33;;
12429;SDS011;6279;42.192;24.326;2023-11-22T08:08:51;17.87;;;11.63;;
12429;SDS011;6279;42.192;24.326;2023-11-22T08:11:18;15.83;;;10.73;;
12429;SDS011;6279;42.192;24.326;2023-11-22T08:13:44;16.87;;;11.57;;
12429;SDS011;6279;42.192;24.326;2023-11-22T08:16:13;13.20;;;10.07;;
12429;SDS011;6279;42.192;24.326;2023-11-22T08:18:38;14.03;;;10.23;;
12429;SDS011;6279;42.192;24.326;2023-11-22T08:21:05;18.63;;;10.03;;
12429;SDS011;6279;42.192;24.326;2023-11-22T08:23:31;14.03;;;10.43;;
12429;SDS011;6279;42.192;24.326;2023-11-22T08:25:58;17.17;;;11.20;;
12429;SDS011;6279;42.192;24.326;2023-11-22T08:28:24;15.50;;;10.17;;
12429;SDS011;6279;42.192;24.326;2023-11-22T08:30:51;17.87;;;10.57;;
12429;SDS011;6279;42.192;24.326;2023-11-22T08:33:16;22.83;;;11.43;;
12429;SDS011;6279;42.192;24.326;2023-11-22T08:35:42;18.83;;;11.60;;
12429;SDS011;6279;42.192;24.326;2023-11-22T08:38:08;17.60;;;10.97;;
12429;SDS011;6279;42.192;24.326;2023-11-22T08:40:34;14.10;;;10.40;;
12429;SDS011;6279;42.192;24.326;2023-11-22T08:43:02;13.77;;;9.83;;
12429;SDS011;6279;42.192;24.326;2023-11-22T08:45:30;15.67;;;10.20;;
12429;SDS011;6279;42.192;24.326;2023-11-22T08:47:56;18.20;;;10.90;;
12429;SDS011;6279;42.192;24.326;2023-11-22T08:50:22;22.47;;;12.63;;
12429;SDS011;6279;42.192;24.326;2023-11-22T08:52:48;20.10;;;13.50;;
12429;SDS011;6279;42.192;24.326;2023-11-22T08:55:17;16.37;;;11.70;;
12429;SDS011;6279;42.192;24.326;2023-11-22T08:57:47;24.07;;;16.63;;
12429;SDS011;6279;42.192;24.326;2023-11-22T09:00:12;22.17;;;13.97;;
12429;SDS011;6279;42.192;24.326;2023-11-22T09:02:39;18.00;;;11.83;;
12429;SDS011;6279;42.192;24.326;2023-11-22T09:05:06;19.67;;;13.07;;
12429;SDS011;6279;42.192;24.326;2023-11-22T09:07:33;20.23;;;12.00;;
12429;SDS011;6279;42.192;24.326;2023-11-22T09:10:00;14.87;;;10.70;;
12429;SDS011;6279;42.192;24.326;2023-11-22T09:12:39;15.37;;;10.27;;
12429;SDS011;6279;42.192;24.326;2023-11-22T09:15:09;19.97;;;10.57;;
12429;SDS011;6279;42.192;24.326;2023-11-22T09:17:39;14.23;;;10.90;;
12429;SDS011;6279;42.192;24.326;2023-11-22T09:20:11;13.07;;;9.83;;
12429;SDS011;6279;42.192;24.326;2023-11-22T09:22:43;17.80;;;10.37;;
12429;SDS011;6279;42.192;24.326;2023-11-22T09:25:12;16.33;;;11.33;;
12429;SDS011;6279;42.192;24.326;2023-11-22T09:27:44;25.40;;;13.60;;
12429;SDS011;6279;42.192;24.326;2023-11-22T09:30:12;19.90;;;12.63;;
12429;SDS011;6279;42.192;24.326;2023-11-22T09:32:44;16.00;;;11.83;;
12429;SDS011;6279;42.192;24.326;2023-11-22T09:35:11;13.80;;;10.40;;
12429;SDS011;6279;42.192;24.326;2023-11-22T09:37:37;12.93;;;9.43;;
12429;SDS011;6279;42.192;24.326;2023-11-22T09:40:03;13.03;;;10.10;;
12429;SDS011;6279;42.192;24.326;2023-11-22T09:42:33;13.67;;;9.33;;
12429;SDS011;6279;42.192;24.326;2023-11-22T09:44:59;17.23;;;10.00;;
12429;SDS011;6279;42.192;24.326;2023-11-22T09:47:24;14.80;;;10.20;;
12429;SDS011;6279;42.192;24.326;2023-11-22T09:49:52;14.83;;;9.87;;
12429;SDS011;6279;42.192;24.326;2023-11-22T09:52:20;15.87;;;9.90;;
12429;SDS011;6279;42.192;24.326;2023-11-22T09:54:51;16.90;;;9.90;;
12429;SDS011;6279;42.192;24.326;2023-11-22T09:57:18;10.40;;;8.37;;
12429;SDS011;6279;42.192;24.326;2023-11-22T09:59:45;12.17;;;9.03;;
12429;SDS011;6279;42.192;24.326;2023-11-22T10:02:16;16.07;;;9.83;;
12429;SDS011;6279;42.192;24.326;2023-11-22T10:04:42;14.03;;;9.00;;
12429;SDS011;6279;42.192;24.326;2023-11-22T10:07:08;22.03;;;9.97;;
12429;SDS011;6279;42.192;24.326;2023-11-22T10:09:35;13.37;;;9.97;;
12429;SDS011;6279;42.192;24.326;2023-11-22T10:12:03;15.00;;;10.40;;
12429;SDS011;6279;42.192;24.326;2023-11-22T10:14:29;16.10;;;10.73;;
12429;SDS011;6279;42.192;24.326;2023-11-22T10:16:59;17.63;;;11.23;;
12429;SDS011;6279;42.192;24.326;2023-11-22T10:19:25;14.37;;;11.00;;
12429;SDS011;6279;42.192;24.326;2023-11-22T10:22:05;13.33;;;10.50;;
12429;SDS011;6279;42.192;24.326;2023-11-22T10:24:31;16.33;;;10.63;;
12429;SDS011;6279;42.192;24.326;2023-11-22T10:26:58;14.87;;;10.17;;
12429;SDS011;6279;42.192;24.326;2023-11-22T10:29:27;15.07;;;9.97;;
12429;SDS011;6279;42.192;24.326;2023-11-22T10:31:53;15.07;;;10.37;;
12429;SDS011;6279;42.192;24.326;2023-11-22T10:34:23;17.43;;;12.37;;
12429;SDS011;6279;42.192;24.326;2023-11-22T10:36:49;17.97;;;11.33;;
12429;SDS011;6279;42.192;24.326;2023-11-22T10:39:20;20.67;;;11.60;;
12429;SDS011;6279;42.192;24.326;2023-11-22T10:41:46;16.90;;;11.60;;
12429;SDS011;6279;42.192;24.326;2023-11-22T10:44:12;20.83;;;13.10;;
12429;SDS011;6279;42.192;24.326;2023-11-22T10:46:40;23.03;;;13.07;;
12429;SDS011;6279;42.192;24.326;2023-11-22T10:49:06;17.10;;;10.90;;
12429;SDS011;6279;42.192;24.326;2023-11-22T10:51:32;17.83;;;11.00;;
12429;SDS011;6279;42.192;24.326;2023-11-22T10:53:59;16.20;;;11.77;;
12429;SDS011;6279;42.192;24.326;2023-11-22T10:56:28;15.60;;;10.20;;
12429;SDS011;6279;42.192;24.326;2023-11-22T10:59:02;21.37;;;10.23;;
12429;SDS011;6279;42.192;24.326;2023-11-22T11:01:34;12.80;;;8.47;;
12429;SDS011;6279;42.192;24.326;2023-11-22T11:04:01;11.00;;;8.53;;
12429;SDS011;6279;42.192;24.326;2023-11-22T11:06:32;16.30;;;9.70;;
12429;SDS011;6279;42.192;24.326;2023-11-22T11:09:01;16.37;;;11.30;;
12429;SDS011;6279;42.192;24.326;2023-11-22T11:11:34;15.43;;;10.87;;
12429;SDS011;6279;42.192;24.326;2023-11-22T11:14:00;13.93;;;10.37;;
12429;SDS011;6279;42.192;24.326;2023-11-22T11:16:27;13.53;;;10.20;;
12429;SDS011;6279;42.192;24.326;2023-11-22T11:18:56;15.90;;;12.57;;
12429;SDS011;6279;42.192;24.326;2023-11-22T11:21:22;15.93;;;11.47;;
12429;SDS011;6279;42.192;24.326;2023-11-22T11:23:51;18.03;;;11.20;;
12429;SDS011;6279;42.192;24.326;2023-11-22T11:26:18;16.37;;;11.97;;
12429;SDS011;6279;42.192;24.326;2023-11-22T11:28:48;15.87;;;11.67;;
12429;SDS011;6279;42.192;24.326;2023-11-22T11:31:14;15.53;;;11.47;;
12429;SDS011;6279;42.192;24.326;2023-11-22T11:36:36;15.40;;;10.77;;
12429;SDS011;6279;42.192;24.326;2023-11-22T11:39:06;18.37;;;12.00;;
12429;SDS011;6279;42.192;24.326;2023-11-22T11:41:40;15.00;;;11.37;;
12429;SDS011;6279;42.192;24.326;2023-11-22T11:44:09;19.40;;;10.60;;
12429;SDS011;6279;42.192;24.326;2023-11-22T11:46:37;14.07;;;10.63;;
12429;SDS011;6279;42.192;24.326;2023-11-22T11:49:06;12.53;;;9.87;;
12429;SDS011;6279;42.192;24.326;2023-11-22T11:51:35;13.47;;;10.80;;
12429;SDS011;6279;42.192;24.326;2023-11-22T11:54:02;14.17;;;11.30;;
12429;SDS011;6279;42.192;24.326;2023-11-22T11:56:28;15.63;;;11.47;;
